KHEG

Herlong Recreational Airport

Jacksonville, Florida, USA
METAR KHEG 220215Z AUTO 11005KT 10SM SCT020 BKN029 OVC095 24/22 A3013 RMK AO2
Observed Flight Rules
May-22 @ 02:15 UTC (25 minutes ago) Marginal Visual Flight Rules
Wind Visibility Clouds
110° at 5 knots 10 miles
  • Scattered at 2,000' AGL
  • Broken at 2,900' AGL
  • Overcast at 9,500' AGL
Temperatures Readings
Current 24°C / 75°F
Dewpoint 22°C / 72°F
Humidity 89%
Altimeter 30.13" Hg
Pressure 1020 hPa
METAR KHEG 220215Z AUTO 11005KT 10SM SCT020 BKN029 OVC095 24/22 A3013 RMK AO2
Observed Flight Rules
May-22 @ 02:15 UTC
(25 minutes ago)
MVFR
Wind Visibility
110° at 5 knots 10 miles
Clouds
  • Scattered at 2,000' AGL
  • Broken at 2,900' AGL
  • Overcast at 9,500' AGL
Temperature Dewpoint
24°C / 75°F 22°C / 72°F
Humidity Altimeter Pressure
89% 30.13" Hg 1020 hPa